createdAt,value
2022-12-08T00:01:25.869Z,3.20
2022-12-08T00:03:53.036Z,2.85
2022-12-08T00:06:56.837Z,2.88
2022-12-08T00:09:39.078Z,3.20
2022-12-08T00:12:09.215Z,3.10
2022-12-08T00:17:12.747Z,3.30
2022-12-08T00:19:40.536Z,3.13
2022-12-08T00:22:09.398Z,3.17
2022-12-08T00:24:39.651Z,3.20
2022-12-08T00:27:08.264Z,3.08
2022-12-08T00:29:35.086Z,3.67
2022-12-08T00:32:02.061Z,3.30
2022-12-08T00:34:28.983Z,3.40
2022-12-08T00:36:55.957Z,3.22
2022-12-08T00:39:22.838Z,3.47
2022-12-08T00:42:08.953Z,3.30
2022-12-08T00:44:35.750Z,3.05
2022-12-08T00:47:02.590Z,3.50
2022-12-08T00:49:29.488Z,3.72
2022-12-08T00:51:56.410Z,3.22
2022-12-08T00:54:23.405Z,3.50
2022-12-08T00:56:50.873Z,3.63
2022-12-08T00:59:17.850Z,3.10
2022-12-08T01:01:46.205Z,3.50
2022-12-08T01:04:18.045Z,3.63
2022-12-08T01:06:45.519Z,3.65
2022-12-08T01:09:14.285Z,4.72
2022-12-08T01:11:41.159Z,4.95
2022-12-08T01:14:08.079Z,4.32
2022-12-08T01:16:36.483Z,3.97
2022-12-08T01:19:04.662Z,4.20
2022-12-08T01:21:31.573Z,4.75
2022-12-08T01:24:01.094Z,4.78
2022-12-08T01:26:28.004Z,5.07
2022-12-08T01:28:55.361Z,4.80
2022-12-08T01:31:23.224Z,5.25
2022-12-08T01:33:50.526Z,5.82
2022-12-08T01:36:29.002Z,5.68
2022-12-08T01:38:58.618Z,5.68
2022-12-08T01:41:29.363Z,5.32
2022-12-08T01:44:00.185Z,6.15
2022-12-08T01:46:32.704Z,6.15
2022-12-08T01:49:12.337Z,6.45
2022-12-08T01:51:52.806Z,6.67
2022-12-08T01:56:56.870Z,6.65
2022-12-08T01:59:24.621Z,5.40
2022-12-08T02:01:52.347Z,7.80
2022-12-08T02:04:19.251Z,7.43
2022-12-08T02:06:47.613Z,6.90
2022-12-08T02:09:15.190Z,7.05
2022-12-08T02:11:41.985Z,7.78
2022-12-08T02:14:12.755Z,7.65
2022-12-08T02:16:50.124Z,7.72
2022-12-08T02:20:01.837Z,8.23
2022-12-08T02:22:28.930Z,8.60
2022-12-08T02:25:14.544Z,7.95
2022-12-08T02:28:04.030Z,7.95
2022-12-08T02:30:33.858Z,8.65
2022-12-08T02:33:07.015Z,6.85
2022-12-08T02:35:42.047Z,8.82
2022-12-08T02:38:08.883Z,9.05
2022-12-08T02:41:12.706Z,7.38
2022-12-08T02:43:47.972Z,8.48
2022-12-08T02:46:50.045Z,8.63
2022-12-08T02:51:43.677Z,9.10
2022-12-08T02:54:11.030Z,8.18
2022-12-08T02:57:21.364Z,9.40
2022-12-08T02:59:56.230Z,9.23
2022-12-08T03:03:00.655Z,8.10
2022-12-08T03:05:36.010Z,9.30
2022-12-08T03:08:42.622Z,9.95
2022-12-08T03:11:20.387Z,9.90
2022-12-08T03:13:56.281Z,10.25
2022-12-08T03:16:26.384Z,11.68
2022-12-08T03:19:18.589Z,11.35
2022-12-08T03:21:50.327Z,12.88
2022-12-08T03:24:19.197Z,11.93
2022-12-08T03:26:56.932Z,11.88
2022-12-08T03:29:24.640Z,11.55
2022-12-08T03:31:57.599Z,9.43
2022-12-08T03:34:27.870Z,11.27
2022-12-08T03:36:55.346Z,11.32
2022-12-08T03:39:22.219Z,11.88
2022-12-08T03:41:49.144Z,11.50
2022-12-08T03:44:15.992Z,12.48
2022-12-08T03:46:42.815Z,11.50
2022-12-08T03:49:09.625Z,13.15
2022-12-08T03:51:36.520Z,13.00
2022-12-08T03:54:04.109Z,12.13
2022-12-08T03:56:36.961Z,12.23
2022-12-08T03:59:04.253Z,11.90
2022-12-08T04:01:31.849Z,11.70
2022-12-08T04:03:58.775Z,13.50
2022-12-08T04:06:26.031Z,12.23
2022-12-08T04:08:52.989Z,12.18
2022-12-08T04:11:20.378Z,13.50
2022-12-08T04:13:47.454Z,13.35
2022-12-08T04:16:20.277Z,13.45
2022-12-08T04:18:47.439Z,13.18
2022-12-08T04:21:15.014Z,13.63
2022-12-08T04:23:42.187Z,12.70
2022-12-08T04:26:09.634Z,13.50
2022-12-08T04:28:36.890Z,11.65
2022-12-08T04:31:03.918Z,14.73
2022-12-08T04:33:31.018Z,14.85
2022-12-08T04:35:58.327Z,14.90
2022-12-08T04:38:25.270Z,15.48
2022-12-08T04:40:52.118Z,14.25
2022-12-08T04:43:19.080Z,16.60
2022-12-08T04:45:46.654Z,17.00
2022-12-08T04:48:13.717Z,17.05
2022-12-08T04:50:42.229Z,16.60
2022-12-08T04:53:10.375Z,16.77
2022-12-08T04:55:43.773Z,15.63
2022-12-08T04:58:14.014Z,16.42
2022-12-08T05:00:41.250Z,16.48
2022-12-08T05:03:08.514Z,15.48
2022-12-08T05:05:35.410Z,16.25
2022-12-08T05:08:02.571Z,15.20
2022-12-08T05:10:29.527Z,16.17
2022-12-08T05:12:57.684Z,15.77
2022-12-08T05:15:24.610Z,14.40
2022-12-08T05:17:51.466Z,15.68
2022-12-08T05:20:18.403Z,15.73
2022-12-08T05:22:48.006Z,13.63
2022-12-08T05:27:43.134Z,15.13
2022-12-08T05:30:10.275Z,14.30
2022-12-08T05:32:37.152Z,12.68
2022-12-08T05:35:04.195Z,14.40
2022-12-08T05:37:31.071Z,13.80
2022-12-08T05:39:57.914Z,12.93
2022-12-08T05:42:27.935Z,13.25
2022-12-08T05:44:54.852Z,13.23
2022-12-08T05:47:21.737Z,12.50
2022-12-08T05:49:48.599Z,11.55
2022-12-08T05:52:16.913Z,11.02
2022-12-08T05:54:44.248Z,10.98
2022-12-08T05:57:11.597Z,10.18
2022-12-08T05:59:39.548Z,9.90
2022-12-08T06:02:06.560Z,10.20
2022-12-08T06:04:33.590Z,9.82
2022-12-08T06:07:00.410Z,10.23
2022-12-08T06:09:27.242Z,10.95
2022-12-08T06:11:54.083Z,9.82
2022-12-08T06:14:21.030Z,10.48
2022-12-08T06:16:47.870Z,10.45
2022-12-08T06:19:16.145Z,9.77
2022-12-08T06:21:42.937Z,9.20
2022-12-08T06:24:09.811Z,10.80
2022-12-08T06:26:36.614Z,9.77
2022-12-08T06:29:04.959Z,8.57
2022-12-08T06:31:31.878Z,9.02
2022-12-08T06:33:58.839Z,8.25
2022-12-08T06:36:28.161Z,9.05
2022-12-08T06:38:55.246Z,9.35
2022-12-08T06:41:22.417Z,9.45
2022-12-08T06:43:49.253Z,8.57
2022-12-08T06:46:18.390Z,9.20
2022-12-08T06:48:45.771Z,8.73
2022-12-08T06:51:15.787Z,8.90
2022-12-08T06:53:43.963Z,9.68
2022-12-08T06:56:15.943Z,8.57
2022-12-08T06:58:46.200Z,8.02
2022-12-08T07:01:17.564Z,8.73
2022-12-08T07:03:44.664Z,8.82
2022-12-08T07:06:16.023Z,10.32
2022-12-08T07:08:43.039Z,9.32
2022-12-08T07:11:15.286Z,11.27
2022-12-08T07:13:45.194Z,10.60
2022-12-08T07:16:13.147Z,11.77
2022-12-08T07:18:40.183Z,11.38
2022-12-08T07:21:13.171Z,10.02
2022-12-08T07:23:40.054Z,9.40
2022-12-08T07:26:10.104Z,9.45
2022-12-08T07:28:38.540Z,8.48
2022-12-08T07:31:06.679Z,10.05
2022-12-08T07:33:36.058Z,9.13
2022-12-08T07:36:05.314Z,8.65
2022-12-08T07:38:32.436Z,7.45
2022-12-08T07:40:59.790Z,8.55
2022-12-08T07:43:26.935Z,8.75
2022-12-08T07:45:53.881Z,8.57
2022-12-08T07:48:20.766Z,8.18
2022-12-08T07:50:47.683Z,7.60
2022-12-08T07:53:14.805Z,7.60
2022-12-08T07:55:43.103Z,6.68
2022-12-08T07:58:11.151Z,6.55
2022-12-08T08:00:38.509Z,6.45
2022-12-08T08:03:06.213Z,6.47
2022-12-08T08:05:33.108Z,5.90
2022-12-08T08:08:00.118Z,5.35
2022-12-08T08:10:27.164Z,5.13
2022-12-08T08:12:54.114Z,4.90
2022-12-08T08:15:21.426Z,4.35
2022-12-08T08:17:52.305Z,4.45
2022-12-08T08:20:20.878Z,4.00
2022-12-08T08:22:51.312Z,3.60
2022-12-08T08:25:19.785Z,3.97
2022-12-08T08:27:46.978Z,3.42
2022-12-08T08:30:20.413Z,4.50
2022-12-08T08:32:48.610Z,4.70
2022-12-08T08:35:15.856Z,5.18
2022-12-08T08:37:47.273Z,5.30
2022-12-08T08:40:16.275Z,6.18
2022-12-08T08:42:43.137Z,5.90
2022-12-08T08:45:10.496Z,6.63
2022-12-08T08:47:37.287Z,5.80
2022-12-08T08:50:05.301Z,5.63
2022-12-08T08:52:32.294Z,5.30
2022-12-08T08:54:59.169Z,4.78
2022-12-08T08:57:26.386Z,5.05
2022-12-08T08:59:54.064Z,4.85
2022-12-08T09:02:21.838Z,4.25
2022-12-08T09:04:48.873Z,4.22
2022-12-08T09:07:16.552Z,3.92
2022-12-08T09:09:43.545Z,3.72
2022-12-08T09:12:11.382Z,3.70
2022-12-08T09:14:38.337Z,3.60
2022-12-08T09:17:06.162Z,3.80
2022-12-08T09:19:33.059Z,3.58
2022-12-08T09:21:59.947Z,3.88
2022-12-08T09:24:27.095Z,3.58
2022-12-08T09:26:53.994Z,3.40
2022-12-08T09:29:20.845Z,3.50
2022-12-08T09:31:47.893Z,2.97
2022-12-08T09:34:15.995Z,3.05
2022-12-08T09:36:43.323Z,2.75
2022-12-08T09:39:10.209Z,3.10
2022-12-08T09:41:52.772Z,2.80
2022-12-08T09:44:57.337Z,2.65
2022-12-08T09:47:35.736Z,2.67
2022-12-08T09:50:26.096Z,2.60
2022-12-08T09:53:22.928Z,3.05
2022-12-08T09:55:56.579Z,2.53
2022-12-08T09:58:26.188Z,2.28
2022-12-08T10:03:23.887Z,2.63
2022-12-08T10:06:15.745Z,2.50
2022-12-08T10:08:49.959Z,2.50
2022-12-08T10:11:26.698Z,2.83
2022-12-08T10:14:21.009Z,2.40
2022-12-08T10:16:51.331Z,2.65
2022-12-08T10:19:23.931Z,3.25
2022-12-08T10:21:52.636Z,3.20
2022-12-08T10:24:37.375Z,3.20
2022-12-08T10:27:10.548Z,3.58
2022-12-08T10:29:37.533Z,3.13
2022-12-08T10:32:17.841Z,3.30
2022-12-08T10:35:08.146Z,2.95
2022-12-08T10:37:35.315Z,3.10
2022-12-08T10:40:18.222Z,3.15
2022-12-08T10:42:51.140Z,3.25
2022-12-08T10:45:31.425Z,2.72
2022-12-08T10:48:14.364Z,2.90
2022-12-08T10:50:45.947Z,3.83
2022-12-08T10:53:20.837Z,3.90
2022-12-08T10:55:58.371Z,3.65
2022-12-08T10:58:33.910Z,3.67
2022-12-08T11:01:12.088Z,3.25
2022-12-08T11:03:51.241Z,4.32
2022-12-08T11:06:31.690Z,4.18
2022-12-08T11:11:58.472Z,4.97
2022-12-08T11:14:31.192Z,5.07
2022-12-08T11:17:08.956Z,4.85
2022-12-08T11:19:41.091Z,4.80
2022-12-08T11:22:34.725Z,4.97
2022-12-08T11:25:07.807Z,5.20
2022-12-08T11:27:36.877Z,5.43
2022-12-08T11:30:18.880Z,5.82
2022-12-08T11:33:13.624Z,5.65
2022-12-08T11:35:43.717Z,5.78
2022-12-08T11:38:23.742Z,6.75
2022-12-08T11:41:16.932Z,6.63
2022-12-08T11:43:59.078Z,5.75
2022-12-08T11:46:36.664Z,4.78
2022-12-08T11:49:12.559Z,6.95
2022-12-08T11:51:55.980Z,7.15
2022-12-08T11:54:31.789Z,6.55
2022-12-08T11:57:04.807Z,5.82
2022-12-08T11:59:47.817Z,7.15
2022-12-08T12:02:42.556Z,4.65
2022-12-08T12:08:34.560Z,4.50
2022-12-08T12:11:46.123Z,5.80
2022-12-08T12:14:46.712Z,6.50
2022-12-08T12:17:41.768Z,6.50
2022-12-08T12:20:20.552Z,6.63
2022-12-08T12:22:53.649Z,6.80
2022-12-08T12:25:23.863Z,6.10
2022-12-08T12:27:57.315Z,5.93
2022-12-08T12:30:26.466Z,6.65
2022-12-08T12:33:00.326Z,6.40
2022-12-08T12:35:37.983Z,6.40
2022-12-08T12:38:40.427Z,6.13
2022-12-08T12:41:09.625Z,5.78
2022-12-08T12:43:38.441Z,6.15
2022-12-08T12:46:23.600Z,5.67
2022-12-08T12:48:51.722Z,5.03
2022-12-08T12:51:47.659Z,5.32
2022-12-08T12:54:22.260Z,4.63
2022-12-08T12:56:55.076Z,5.15
2022-12-08T13:00:06.820Z,4.90
2022-12-08T13:02:36.959Z,4.95
2022-12-08T13:05:03.791Z,4.70
2022-12-08T13:07:43.674Z,6.63
2022-12-08T13:10:19.158Z,6.18
2022-12-08T13:13:01.004Z,6.43
2022-12-08T13:15:35.609Z,8.52
2022-12-08T13:18:02.957Z,5.40
2022-12-08T13:20:30.210Z,5.25
2022-12-08T13:23:31.168Z,4.78
2022-12-08T13:26:19.278Z,4.97
2022-12-08T13:29:01.661Z,5.05
2022-12-08T13:31:48.266Z,5.15
2022-12-08T13:34:41.701Z,5.50
2022-12-08T13:37:11.985Z,5.32
2022-12-08T13:40:09.583Z,5.65
2022-12-08T13:42:47.876Z,5.95
2022-12-08T13:45:48.801Z,5.43
2022-12-08T13:48:51.213Z,6.07
2022-12-08T13:57:09.959Z,5.60
2022-12-08T13:59:43.850Z,6.10
2022-12-08T14:02:29.709Z,6.72
2022-12-08T14:07:44.791Z,5.43
2022-12-08T14:10:19.720Z,6.22
2022-12-08T14:12:52.339Z,6.10
2022-12-08T14:15:20.095Z,6.30
2022-12-08T14:17:57.819Z,5.53
2022-12-08T14:20:46.355Z,6.20
2022-12-08T14:23:20.044Z,5.38
2022-12-08T14:25:48.287Z,5.28
2022-12-08T14:28:15.282Z,5.60
2022-12-08T14:30:42.430Z,5.80
2022-12-08T14:33:15.392Z,4.93
2022-12-08T14:35:42.413Z,6.20
2022-12-08T14:38:15.477Z,5.32
2022-12-08T14:41:07.060Z,6.10
2022-12-08T14:43:34.586Z,5.60
2022-12-08T14:46:22.893Z,6.35
2022-12-08T14:48:50.059Z,6.05
2022-12-08T14:51:27.026Z,5.65
2022-12-08T14:54:09.860Z,6.18
2022-12-08T14:56:48.812Z,5.95
2022-12-08T14:59:24.910Z,5.35
2022-12-08T15:01:54.593Z,5.38
2022-12-08T15:04:27.184Z,5.47
2022-12-08T15:07:00.352Z,5.18
2022-12-08T15:09:43.422Z,5.47
2022-12-08T15:12:13.276Z,6.22
2022-12-08T15:14:55.140Z,5.70
2022-12-08T15:17:40.559Z,5.95
2022-12-08T15:20:33.217Z,6.10
2022-12-08T15:23:02.568Z,5.65
2022-12-08T15:25:29.648Z,6.50
2022-12-08T15:27:57.887Z,6.72
2022-12-08T15:30:28.639Z,6.40
2022-12-08T15:32:56.394Z,7.03
2022-12-08T15:35:23.690Z,7.43
2022-12-08T15:37:51.942Z,7.28
2022-12-08T15:40:21.357Z,8.30
2022-12-08T15:42:48.993Z,9.07
2022-12-08T15:45:17.276Z,7.35
2022-12-08T15:47:48.373Z,8.85
2022-12-08T15:50:21.303Z,8.05
2022-12-08T15:52:49.591Z,5.32
2022-12-08T15:55:19.331Z,9.35
2022-12-08T15:58:51.735Z,8.65
2022-12-08T16:00:54.649Z,8.48
2022-12-08T16:09:14.154Z,7.80
2022-12-08T16:12:09.444Z,7.80
2022-12-08T16:17:25.815Z,8.30
2022-12-08T16:19:52.661Z,8.57
2022-12-08T16:25:19.307Z,7.82
2022-12-08T16:30:36.339Z,7.90
2022-12-08T16:33:03.414Z,7.07
2022-12-08T16:35:30.736Z,7.35
2022-12-08T16:37:58.027Z,6.25
2022-12-08T16:40:25.102Z,5.45
2022-12-08T16:42:51.998Z,7.47
2022-12-08T16:45:20.781Z,7.13
2022-12-08T16:47:56.284Z,7.32
2022-12-08T16:50:34.750Z,6.20
2022-12-08T16:53:05.541Z,6.38
2022-12-08T16:55:33.678Z,6.18
2022-12-08T16:58:00.850Z,6.20
2022-12-08T17:00:29.634Z,5.95
2022-12-08T17:02:56.888Z,5.00
2022-12-08T17:05:25.634Z,5.43
2022-12-08T17:07:54.629Z,5.85
2022-12-08T17:10:27.108Z,6.22
2022-12-08T17:12:54.984Z,5.55
2022-12-08T17:15:24.382Z,5.28
2022-12-08T17:17:52.217Z,5.85
2022-12-08T17:20:24.695Z,6.50
2022-12-08T17:22:54.914Z,5.03
2022-12-08T17:25:21.791Z,6.25
2022-12-08T17:27:48.729Z,5.07
2022-12-08T17:30:17.655Z,4.82
2022-12-08T17:32:44.778Z,6.57
2022-12-08T17:35:12.069Z,4.93
2022-12-08T17:37:38.981Z,7.03
2022-12-08T17:40:06.817Z,5.63
2022-12-08T17:42:33.954Z,6.50
2022-12-08T17:45:00.793Z,5.88
2022-12-08T17:47:27.746Z,5.03
2022-12-08T17:49:56.108Z,6.65
2022-12-08T17:52:23.067Z,7.00
2022-12-08T17:54:49.910Z,7.40
2022-12-08T17:57:16.803Z,6.53
2022-12-08T17:59:43.694Z,4.30
2022-12-08T18:02:12.060Z,8.18
2022-12-08T18:04:39.028Z,6.00
2022-12-08T18:07:06.142Z,5.45
2022-12-08T18:09:33.747Z,6.50
2022-12-08T18:12:00.687Z,6.28
2022-12-08T18:14:27.645Z,6.18
2022-12-08T18:16:54.622Z,7.32
2022-12-08T18:19:21.756Z,7.40
2022-12-08T18:21:48.546Z,4.75
2022-12-08T18:24:22.209Z,7.40
2022-12-08T18:26:51.975Z,4.47
2022-12-08T18:29:19.462Z,6.07
2022-12-08T18:31:46.327Z,6.38
2022-12-08T18:34:13.223Z,8.02
2022-12-08T18:36:40.049Z,6.40
2022-12-08T18:39:10.683Z,6.78
2022-12-08T18:41:38.029Z,8.45
2022-12-08T18:44:04.994Z,7.22
2022-12-08T18:46:31.900Z,8.48
2022-12-08T18:48:59.480Z,9.07
2022-12-08T18:51:26.405Z,8.70
2022-12-08T18:53:53.364Z,8.05
2022-12-08T18:56:23.237Z,6.10
2022-12-08T18:58:50.238Z,9.30
2022-12-08T19:01:17.612Z,9.57
2022-12-08T19:04:04.734Z,7.75
2022-12-08T19:06:32.806Z,6.72
2022-12-08T19:08:59.595Z,8.07
2022-12-08T19:11:29.034Z,9.73
2022-12-08T19:13:56.292Z,9.38
2022-12-08T19:16:23.330Z,7.00
2022-12-08T19:18:50.381Z,9.85
2022-12-08T19:21:17.328Z,7.82
2022-12-08T19:23:44.208Z,9.25
2022-12-08T19:26:11.402Z,9.43
2022-12-08T19:28:40.002Z,8.27
2022-12-08T19:31:08.181Z,9.57
2022-12-08T19:33:35.234Z,9.65
2022-12-08T19:36:08.453Z,8.77
2022-12-08T19:38:55.410Z,9.45
2022-12-08T19:41:42.151Z,6.97
2022-12-08T19:44:46.063Z,8.25
2022-12-08T19:47:13.109Z,8.10
2022-12-08T19:49:40.122Z,8.80
2022-12-08T19:52:07.831Z,8.82
2022-12-08T19:54:35.351Z,7.13
2022-12-08T19:57:02.412Z,7.05
2022-12-08T19:59:30.462Z,8.63
2022-12-08T20:01:58.724Z,6.05
2022-12-08T20:04:27.401Z,9.82
2022-12-08T20:06:55.967Z,7.50
2022-12-08T20:09:24.127Z,7.65
2022-12-08T20:11:54.435Z,6.55
2022-12-08T20:14:22.729Z,7.40
2022-12-08T20:16:50.503Z,7.50
2022-12-08T20:19:17.801Z,9.27
2022-12-08T20:21:44.725Z,6.68
2022-12-08T20:24:11.605Z,8.18
2022-12-08T20:26:38.609Z,6.53
2022-12-08T20:29:05.484Z,6.15
2022-12-08T20:31:33.744Z,6.18
2022-12-08T20:34:01.508Z,7.68
2022-12-08T20:36:28.561Z,7.10
2022-12-08T20:38:56.087Z,6.97
2022-12-08T20:41:24.807Z,6.90
2022-12-08T20:43:52.223Z,5.87
2022-12-08T20:46:20.376Z,8.45
2022-12-08T20:48:47.810Z,5.85
2022-12-08T20:51:19.555Z,9.18
2022-12-08T20:53:47.612Z,9.10
2022-12-08T20:56:19.984Z,9.75
2022-12-08T20:58:47.943Z,10.73
2022-12-08T21:01:17.208Z,11.27
2022-12-08T21:03:45.393Z,10.48
2022-12-08T21:06:13.387Z,11.95
2022-12-08T21:08:41.845Z,12.18
2022-12-08T21:11:10.352Z,12.35
2022-12-08T21:13:38.212Z,11.27
2022-12-08T21:16:05.564Z,12.65
2022-12-08T21:18:38.913Z,10.35
2022-12-08T21:21:10.330Z,12.52
2022-12-08T21:23:37.493Z,14.50
2022-12-08T21:26:14.390Z,16.58
2022-12-08T21:28:41.662Z,12.50
2022-12-08T21:31:14.466Z,14.30
2022-12-08T21:33:41.826Z,13.65
2022-12-08T21:36:12.780Z,10.35
2022-12-08T21:38:40.842Z,11.55
2022-12-08T21:41:12.228Z,15.05
2022-12-08T21:43:39.183Z,14.68
2022-12-08T21:46:06.294Z,14.63
2022-12-08T21:48:33.500Z,9.25
2022-12-08T21:51:04.910Z,12.80
2022-12-08T21:53:32.055Z,13.23
2022-12-08T21:55:59.119Z,9.38
2022-12-08T21:58:26.391Z,14.45
2022-12-08T22:00:53.533Z,13.68
2022-12-08T22:03:20.723Z,10.30
2022-12-08T22:05:47.799Z,15.48
2022-12-08T22:08:14.848Z,10.52
2022-12-08T22:10:47.930Z,10.65
2022-12-08T22:13:14.899Z,12.38
2022-12-08T22:15:41.867Z,14.48
2022-12-08T22:18:09.296Z,13.93
2022-12-08T22:20:42.327Z,16.27
2022-12-08T22:23:11.030Z,12.88
2022-12-08T22:25:38.002Z,16.42
2022-12-08T22:28:05.064Z,16.27
2022-12-08T22:30:38.657Z,13.32
2022-12-08T22:33:06.040Z,12.68
2022-12-08T22:35:32.914Z,14.93
2022-12-08T22:37:59.676Z,15.38
2022-12-08T22:40:26.627Z,15.30
2022-12-08T22:42:53.412Z,13.68
2022-12-08T22:45:20.213Z,14.45
2022-12-08T22:47:47.026Z,15.77
2022-12-08T22:50:14.025Z,13.45
2022-12-08T22:52:40.928Z,19.25
2022-12-08T22:55:08.663Z,14.52
2022-12-08T22:57:35.508Z,14.93
2022-12-08T23:00:03.563Z,12.23
2022-12-08T23:02:30.586Z,13.82
2022-12-08T23:04:57.867Z,14.88
2022-12-08T23:07:24.777Z,15.02
2022-12-08T23:09:52.437Z,13.90
2022-12-08T23:12:19.214Z,12.60
2022-12-08T23:14:46.146Z,11.57
2022-12-08T23:17:13.369Z,11.70
2022-12-08T23:19:40.713Z,10.95
2022-12-08T23:22:07.548Z,10.18
2022-12-08T23:24:34.379Z,10.73
2022-12-08T23:27:01.288Z,10.32
2022-12-08T23:29:28.322Z,10.57
2022-12-08T23:31:55.443Z,9.82
2022-12-08T23:34:22.387Z,10.85
2022-12-08T23:36:49.407Z,10.18
2022-12-08T23:39:16.387Z,10.13
2022-12-08T23:41:43.284Z,10.10
2022-12-08T23:44:12.349Z,9.10
2022-12-08T23:46:39.350Z,9.50
2022-12-08T23:49:06.272Z,9.48
2022-12-08T23:51:33.209Z,10.10
2022-12-08T23:54:00.251Z,10.18
2022-12-08T23:56:30.470Z,9.13
2022-12-08T23:58:57.687Z,9.95
